createdAt,value
2023-04-02T00:01:37.028Z,98091.38
2023-04-02T00:04:22.464Z,98086.72
2023-04-02T00:06:54.644Z,98088.88
2023-04-02T00:09:38.237Z,98097.09
2023-04-02T00:12:20.706Z,98098.94
2023-04-02T00:14:55.170Z,98100.25
2023-04-02T00:17:26.187Z,98099.47
2023-04-02T00:20:07.389Z,98104.53
2023-04-02T00:22:45.831Z,98109.53
2023-04-02T00:25:15.169Z,98113.16
2023-04-02T00:27:43.922Z,98111.00
2023-04-02T00:30:15.821Z,98118.44
2023-04-02T00:32:46.021Z,98122.03
2023-04-02T00:35:30.987Z,98115.09
2023-04-02T00:38:00.518Z,98119.34
2023-04-02T00:40:33.423Z,98126.63
2023-04-02T00:43:04.562Z,98130.97
2023-04-02T00:45:38.043Z,98123.81
2023-04-02T00:48:33.602Z,98136.88
2023-04-02T00:51:32.296Z,98138.69
2023-04-02T00:54:05.973Z,98139.06
2023-04-02T00:56:47.514Z,98145.28
2023-04-02T00:59:32.488Z,98153.38
2023-04-02T01:02:18.688Z,98157.22
2023-04-02T01:05:00.262Z,98160.50
2023-04-02T01:08:09.417Z,98163.63
2023-04-02T01:10:46.423Z,98163.25
2023-04-02T01:13:40.357Z,98173.50
2023-04-02T01:16:20.968Z,98180.09
2023-04-02T01:19:27.332Z,98184.94
2023-04-02T01:22:15.783Z,98183.25
2023-04-02T01:24:44.881Z,98192.28
2023-04-02T01:27:23.758Z,98191.66
2023-04-02T01:30:00.872Z,98198.91
2023-04-02T01:32:31.632Z,98191.31
2023-04-02T01:35:01.454Z,98197.25
2023-04-02T01:37:45.128Z,98203.03
2023-04-02T01:40:44.772Z,98204.41
2023-04-02T01:43:38.040Z,98199.25
2023-04-02T01:46:34.235Z,98211.97
2023-04-02T01:49:12.046Z,98218.03
2023-04-02T01:51:50.875Z,98223.19
2023-04-02T01:54:22.933Z,98224.53
2023-04-02T01:56:51.727Z,98227.00
2023-04-02T01:59:22.609Z,98223.47
2023-04-02T02:01:59.760Z,98230.59
2023-04-02T02:04:29.783Z,98242.06
2023-04-02T02:07:01.276Z,98238.91
2023-04-02T02:09:35.569Z,98252.78
2023-04-02T02:12:05.500Z,98241.31
2023-04-02T02:14:33.913Z,98244.19
2023-04-02T02:17:04.181Z,98242.66
2023-04-02T02:19:49.625Z,98247.00
2023-04-02T02:22:46.926Z,98254.19
2023-04-02T02:25:22.405Z,98255.25
2023-04-02T02:28:35.467Z,98250.78
2023-04-02T02:31:13.057Z,98252.22
2023-04-02T02:33:57.029Z,98266.78
2023-04-02T02:36:49.346Z,98267.31
2023-04-02T02:39:33.248Z,98270.81
2023-04-02T02:42:25.070Z,98270.13
2023-04-02T02:44:57.275Z,98273.44
2023-04-02T02:47:29.683Z,98277.94
2023-04-02T02:50:19.704Z,98287.09
2023-04-02T02:52:54.893Z,98287.94
2023-04-02T02:55:34.575Z,98296.25
2023-04-02T02:58:19.620Z,98292.53
2023-04-02T03:00:59.124Z,98298.88
2023-04-02T03:03:32.818Z,98296.25
2023-04-02T03:06:16.920Z,98291.44
2023-04-02T03:09:18.832Z,98306.13
2023-04-02T03:12:28.283Z,98303.59
2023-04-02T03:15:16.429Z,98304.66
2023-04-02T03:18:02.533Z,98307.19
2023-04-02T03:20:55.513Z,98305.47
2023-04-02T03:23:59.581Z,98308.78
2023-04-02T03:27:01.926Z,98319.06
2023-04-02T03:29:34.697Z,98327.28
2023-04-02T03:32:17.091Z,98322.13
2023-04-02T03:35:21.740Z,98323.66
2023-04-02T03:38:14.511Z,98329.72
2023-04-02T03:41:22.854Z,98321.88
2023-04-02T03:43:58.452Z,98322.09
2023-04-02T03:46:40.978Z,98331.50
2023-04-02T03:49:33.056Z,98331.13
2023-04-02T03:52:26.075Z,98335.31
2023-04-02T03:54:58.817Z,98338.41
2023-04-02T03:57:44.637Z,98348.81
2023-04-02T04:00:51.257Z,98353.78
2023-04-02T04:03:32.640Z,98357.94
2023-04-02T04:06:14.614Z,98359.06
2023-04-02T04:08:51.811Z,98364.19
2023-04-02T04:11:30.018Z,98368.78
2023-04-02T04:14:35.189Z,98376.88
2023-04-02T04:17:17.220Z,98385.47
2023-04-02T04:19:55.574Z,98389.81
2023-04-02T04:22:34.157Z,98389.19
2023-04-02T04:25:40.304Z,98392.97
2023-04-02T04:28:38.682Z,98395.34
2023-04-02T04:31:23.855Z,98409.88
2023-04-02T04:34:05.371Z,98413.69
2023-04-02T04:36:57.565Z,98411.41
2023-04-02T04:39:56.612Z,98421.69
2023-04-02T04:42:33.330Z,98429.03
2023-04-02T04:45:36.115Z,98427.34
2023-04-02T04:48:19.149Z,98432.72
2023-04-02T04:50:56.383Z,98435.25
2023-04-02T04:53:28.822Z,98445.00
2023-04-02T04:56:18.097Z,98443.13
2023-04-02T04:59:20.378Z,98450.19
2023-04-02T05:02:07.148Z,98451.38
2023-04-02T05:04:40.456Z,98455.13
2023-04-02T05:07:44.067Z,98456.53
2023-04-02T05:10:25.576Z,98457.81
2023-04-02T05:13:25.510Z,98455.75
2023-04-02T05:16:42.507Z,98461.16
2023-04-02T05:19:35.958Z,98463.50
2023-04-02T05:22:35.051Z,98468.94
2023-04-02T05:25:22.501Z,98465.59
2023-04-02T05:28:06.533Z,98469.31
2023-04-02T05:30:56.899Z,98470.84
2023-04-02T05:33:33.092Z,98468.63
2023-04-02T05:36:19.453Z,98459.56
2023-04-02T05:38:54.683Z,98480.97
2023-04-02T05:41:43.553Z,98480.78
2023-04-02T05:44:27.059Z,98485.91
2023-04-02T05:47:21.160Z,98486.69
2023-04-02T05:50:07.636Z,98485.34
2023-04-02T05:52:48.927Z,98487.78
2023-04-02T05:55:18.924Z,98493.91
2023-04-02T05:58:10.438Z,98492.22
2023-04-02T06:01:15.632Z,98496.56
2023-04-02T06:04:01.409Z,98503.69
2023-04-02T06:06:54.467Z,98500.75
2023-04-02T06:10:09.824Z,98508.06
2023-04-02T06:12:49.640Z,98512.78
2023-04-02T06:15:23.931Z,98515.75
2023-04-02T06:18:34.673Z,98520.97
2023-04-02T06:21:04.160Z,98524.75
2023-04-02T06:24:00.514Z,98516.84
2023-04-02T06:26:42.475Z,98530.28
2023-04-02T06:29:24.807Z,98535.94
2023-04-02T06:32:02.812Z,98551.22
2023-04-02T06:34:33.441Z,98552.75
2023-04-02T06:37:39.183Z,98556.97
2023-04-02T06:40:46.634Z,98561.28
2023-04-02T06:43:44.608Z,98560.69
2023-04-02T06:46:57.210Z,98567.13
2023-04-02T06:49:47.332Z,98572.56
2023-04-02T06:52:44.137Z,98575.63
2023-04-02T06:56:35.513Z,98580.75
2023-04-02T06:59:07.657Z,98590.34
2023-04-02T07:01:49.879Z,98594.97
2023-04-02T07:04:20.310Z,98586.34
2023-04-02T07:06:51.528Z,98600.13
2023-04-02T07:09:21.232Z,98603.91
2023-04-02T07:11:53.653Z,98605.28
2023-04-02T07:14:22.036Z,98613.34
2023-04-02T07:16:51.072Z,98617.34
2023-04-02T07:19:23.161Z,98619.16
2023-04-02T07:21:55.997Z,98622.19
2023-04-02T07:24:26.415Z,98625.13
2023-04-02T07:26:55.274Z,98620.44
2023-04-02T07:29:23.182Z,98634.84
2023-04-02T07:31:53.085Z,98636.69
2023-04-02T07:34:21.233Z,98637.09
2023-04-02T07:36:49.332Z,98647.78
2023-04-02T07:39:17.591Z,98647.09
2023-04-02T07:42:01.984Z,98640.28
2023-04-02T07:44:30.431Z,98657.50
2023-04-02T07:46:58.848Z,98666.13
2023-04-02T07:49:27.238Z,98667.66
2023-04-02T07:51:55.361Z,98675.59
2023-04-02T07:54:23.527Z,98668.91
2023-04-02T07:56:51.483Z,98667.41
2023-04-02T07:59:20.034Z,98673.09
2023-04-02T08:01:48.378Z,98676.16
2023-04-02T08:04:23.034Z,98680.03
2023-04-02T08:06:53.747Z,98677.28
2023-04-02T08:09:22.804Z,98677.56
2023-04-02T08:11:50.996Z,98681.47
2023-04-02T08:14:19.065Z,98686.88
2023-04-02T08:16:56.551Z,98688.44
2023-04-02T08:19:24.853Z,98699.00
2023-04-02T08:21:53.879Z,98704.69
2023-04-02T08:24:23.087Z,98707.19
2023-04-02T08:26:53.742Z,98705.09
2023-04-02T08:29:22.374Z,98703.13
2023-04-02T08:31:50.443Z,98705.25
2023-04-02T08:34:18.518Z,98701.63
2023-04-02T08:36:46.569Z,98698.09
2023-04-02T08:39:15.133Z,98708.03
2023-04-02T08:42:46.263Z,98714.94
2023-04-02T08:45:33.936Z,98708.69
2023-04-02T08:48:05.481Z,98706.31
2023-04-02T08:50:38.369Z,98706.75
2023-04-02T08:53:26.898Z,98715.06
2023-04-02T08:56:43.785Z,98714.41
2023-04-02T08:59:36.834Z,98711.47
2023-04-02T09:02:39.974Z,98715.41
2023-04-02T09:05:21.634Z,98718.88
2023-04-02T09:07:53.084Z,98714.25
2023-04-02T09:10:26.146Z,98721.78
2023-04-02T09:12:54.430Z,98725.38
2023-04-02T09:15:34.321Z,98727.25
2023-04-02T09:18:16.729Z,98729.00
2023-04-02T09:20:48.191Z,98736.16
2023-04-02T09:23:23.627Z,98734.84
2023-04-02T09:26:03.700Z,98729.63
2023-04-02T09:28:33.103Z,98737.84
2023-04-02T09:31:11.822Z,98735.34
2023-04-02T09:33:53.364Z,98744.41
2023-04-02T09:36:40.168Z,98747.97
2023-04-02T09:39:20.051Z,98740.50
2023-04-02T09:41:59.127Z,98749.53
2023-04-02T09:44:34.261Z,98753.81
2023-04-02T09:47:07.715Z,98758.75
2023-04-02T09:49:39.283Z,98759.69
2023-04-02T09:52:25.991Z,98765.13
2023-04-02T09:55:16.965Z,98747.97
2023-04-02T09:57:49.788Z,98751.97
2023-04-02T10:00:32.752Z,98761.84
2023-04-02T10:03:30.006Z,98760.53
2023-04-02T10:06:24.720Z,98774.53
2023-04-02T10:08:52.848Z,98755.66
2023-04-02T10:14:23.145Z,98763.25
2023-04-02T10:16:57.187Z,98755.84
2023-04-02T10:19:54.109Z,98768.25
2023-04-02T10:22:23.954Z,98767.72
2023-04-02T10:24:51.998Z,98771.34
2023-04-02T10:27:54.184Z,98763.44
2023-04-02T10:31:08.815Z,98769.91
2023-04-02T10:33:39.004Z,98770.34
2023-04-02T10:36:30.563Z,98776.84
2023-04-02T10:39:14.105Z,98774.78
2023-04-02T10:42:14.042Z,98778.59
2023-04-02T10:44:51.553Z,98779.88
2023-04-02T10:47:29.174Z,98788.03
2023-04-02T10:50:27.105Z,98788.72
2023-04-02T10:56:11.729Z,98797.84
2023-04-02T10:58:57.508Z,98806.03
2023-04-02T11:01:29.949Z,98806.78
2023-04-02T11:04:14.385Z,98817.69
2023-04-02T11:07:17.788Z,98830.16
2023-04-02T11:09:51.643Z,98818.31
2023-04-02T11:12:42.313Z,98828.34
2023-04-02T11:15:17.943Z,98821.56
2023-04-02T11:17:47.780Z,98824.81
2023-04-02T11:20:49.856Z,98834.44
2023-04-02T11:23:21.324Z,98844.75
2023-04-02T11:25:50.001Z,98842.63
2023-04-02T11:28:27.614Z,98840.38
2023-04-02T11:30:56.866Z,98845.50
2023-04-02T11:33:44.696Z,98852.50
2023-04-02T11:36:50.848Z,98857.34
2023-04-02T11:39:57.176Z,98856.09
2023-04-02T11:42:35.291Z,98865.13
2023-04-02T11:45:25.096Z,98857.63
2023-04-02T11:48:08.376Z,98865.63
2023-04-02T11:50:43.821Z,98876.78
2023-04-02T11:53:12.798Z,98888.78
2023-04-02T11:55:46.130Z,98881.97
2023-04-02T11:58:46.248Z,98879.88
2023-04-02T12:01:23.512Z,98887.22
2023-04-02T12:04:29.432Z,98887.81
2023-04-02T12:07:57.735Z,98889.16
2023-04-02T12:10:35.132Z,98895.81
2023-04-02T12:13:03.969Z,98895.13
2023-04-02T12:15:45.985Z,98894.03
2023-04-02T12:18:23.609Z,98895.56
2023-04-02T12:20:57.447Z,98896.97
2023-04-02T12:23:35.866Z,98908.63
2023-04-02T12:26:08.945Z,98920.19
2023-04-02T12:28:38.556Z,98924.91
2023-04-02T12:31:09.613Z,98912.97
2023-04-02T12:33:42.858Z,98921.84
2023-04-02T12:36:14.704Z,98929.41
2023-04-02T12:38:52.126Z,98928.59
2023-04-02T12:41:31.457Z,98919.78
2023-04-02T12:44:18.921Z,98933.13
2023-04-02T12:46:49.018Z,98939.69
2023-04-02T12:49:35.816Z,98930.81
2023-04-02T12:52:17.993Z,98936.25
2023-04-02T12:54:50.672Z,98941.06
2023-04-02T12:57:27.804Z,98941.91
2023-04-02T13:00:01.261Z,98947.53
2023-04-02T13:02:46.373Z,98949.22
2023-04-02T13:05:31.948Z,98949.59
2023-04-02T13:08:00.502Z,98956.34
2023-04-02T13:10:29.129Z,98958.25
2023-04-02T13:13:03.565Z,98959.94
2023-04-02T13:15:37.034Z,98957.81
2023-04-02T13:18:14.459Z,98960.88
2023-04-02T13:20:54.518Z,98957.66
2023-04-02T13:23:36.626Z,98973.69
2023-04-02T13:26:23.054Z,98963.00
2023-04-02T13:29:24.466Z,98972.94
2023-04-02T13:31:55.942Z,98982.94
2023-04-02T13:34:24.894Z,98981.44
2023-04-02T13:36:53.310Z,98980.03
2023-04-02T13:39:22.287Z,98979.84
2023-04-02T13:42:09.120Z,98983.91
2023-04-02T13:44:38.277Z,98983.38
2023-04-02T13:47:06.642Z,98980.06
2023-04-02T13:49:35.168Z,98988.25
2023-04-02T13:52:05.371Z,98991.31
2023-04-02T13:54:44.109Z,98977.78
2023-04-02T13:57:13.091Z,98992.19
2023-04-02T13:59:41.602Z,98992.50
2023-04-02T14:02:17.532Z,98993.63
2023-04-02T14:04:51.409Z,98991.81
2023-04-02T14:07:36.929Z,98989.13
2023-04-02T14:10:29.447Z,98994.41
2023-04-02T14:13:19.183Z,98998.91
2023-04-02T14:16:22.542Z,99004.25
2023-04-02T14:19:45.869Z,99017.00
2023-04-02T14:22:47.587Z,99014.88
2023-04-02T14:25:37.707Z,99019.19
2023-04-02T14:28:47.664Z,99011.84
2023-04-02T14:31:37.748Z,99017.31
2023-04-02T14:34:24.148Z,99022.09
2023-04-02T14:37:20.174Z,99018.28
2023-04-02T14:40:09.234Z,99019.16
2023-04-02T14:42:49.368Z,99030.31
2023-04-02T14:45:27.907Z,99032.03
2023-04-02T14:48:07.534Z,99035.84
2023-04-02T14:50:42.431Z,99043.16
2023-04-02T14:53:29.648Z,99036.94
2023-04-02T14:56:01.819Z,99045.00
2023-04-02T14:59:12.482Z,99036.09
2023-04-02T15:01:47.080Z,99056.16
2023-04-02T15:04:31.466Z,99046.81
2023-04-02T15:07:13.949Z,99055.44
2023-04-02T15:09:53.583Z,99044.88
2023-04-02T15:12:29.167Z,99054.09
2023-04-02T15:15:40.327Z,99053.25
2023-04-02T15:18:16.654Z,99054.69
2023-04-02T15:21:23.319Z,99060.38
2023-04-02T15:24:34.332Z,99067.69
2023-04-02T15:27:30.699Z,99074.16
2023-04-02T15:30:20.793Z,99073.69
2023-04-02T15:32:49.723Z,99079.44
2023-04-02T15:35:29.965Z,99087.00
2023-04-02T15:38:18.371Z,99084.75
2023-04-02T15:41:16.770Z,99092.88
2023-04-02T15:44:08.630Z,99098.38
2023-04-02T15:46:48.689Z,99098.03
2023-04-02T15:49:47.694Z,99102.47
2023-04-02T15:53:10.135Z,99110.00
2023-04-02T15:56:02.692Z,99109.03
2023-04-02T15:59:11.993Z,99104.13
2023-04-02T16:01:50.296Z,99118.50
2023-04-02T16:04:43.691Z,99121.41
2023-04-02T16:07:55.019Z,99127.88
2023-04-02T16:10:42.013Z,99137.19
2023-04-02T16:13:41.981Z,99142.47
2023-04-02T16:16:35.626Z,99139.97
2023-04-02T16:19:21.276Z,99149.66
2023-04-02T16:22:13.635Z,99149.31
2023-04-02T16:24:42.337Z,99148.34
2023-04-02T16:27:41.232Z,99143.81
2023-04-02T16:30:27.514Z,99158.31
2023-04-02T16:34:03.017Z,99159.72
2023-04-02T16:36:45.301Z,99154.22
2023-04-02T16:39:31.568Z,99161.16
2023-04-02T16:42:20.764Z,99168.97
2023-04-02T16:44:57.816Z,99175.16
2023-04-02T16:47:51.956Z,99182.34
2023-04-02T16:50:52.316Z,99179.09
2023-04-02T16:54:01.484Z,99190.13
2023-04-02T16:57:10.619Z,99187.75
2023-04-02T17:00:15.972Z,99198.97
2023-04-02T17:03:13.929Z,99197.78
2023-04-02T17:06:04.240Z,99215.03
2023-04-02T17:09:13.868Z,99207.38
2023-04-02T17:12:03.288Z,99217.78
2023-04-02T17:14:50.692Z,99215.88
2023-04-02T17:17:20.650Z,99217.78
2023-04-02T17:19:56.347Z,99224.63
2023-04-02T17:22:24.857Z,99230.50
2023-04-02T17:24:57.997Z,99228.56
2023-04-02T17:27:26.756Z,99229.41
2023-04-02T17:30:04.527Z,99237.09
2023-04-02T17:32:34.655Z,99233.81
2023-04-02T17:36:02.968Z,99246.13
2023-04-02T17:39:17.701Z,99240.66
2023-04-02T17:41:58.278Z,99243.09
2023-04-02T17:45:02.422Z,99239.63
2023-04-02T17:48:14.033Z,99240.06
2023-04-02T17:51:24.279Z,99248.66
2023-04-02T17:54:31.180Z,99252.31
2023-04-02T17:57:38.283Z,99257.16
2023-04-02T18:00:36.065Z,99261.63
2023-04-02T18:03:35.530Z,99263.28
2023-04-02T18:06:21.521Z,99268.31
2023-04-02T18:09:27.420Z,99273.56
2023-04-02T18:12:29.306Z,99270.25
2023-04-02T18:15:51.598Z,99282.44
2023-04-02T18:18:34.860Z,99283.41
2023-04-02T18:21:39.111Z,99295.50
2023-04-02T18:24:39.265Z,99292.88
2023-04-02T18:27:25.527Z,99297.41
2023-04-02T18:30:39.612Z,99298.75
2023-04-02T18:33:20.461Z,99303.28
2023-04-02T18:36:14.555Z,99307.09
2023-04-02T18:39:33.719Z,99315.59
2023-04-02T18:42:43.233Z,99313.59
2023-04-02T18:45:33.971Z,99315.22
2023-04-02T18:48:13.301Z,99323.22
2023-04-02T18:50:46.193Z,99323.72
2023-04-02T18:53:23.261Z,99319.84
2023-04-02T18:56:01.456Z,99319.53
2023-04-02T18:58:40.584Z,99318.81
2023-04-02T19:01:13.926Z,99325.47
2023-04-02T19:03:51.808Z,99317.28
2023-04-02T19:06:27.912Z,99314.75
2023-04-02T19:09:03.211Z,99322.56
2023-04-02T19:11:32.209Z,99325.28
2023-04-02T19:14:12.714Z,99327.63
2023-04-02T19:16:59.757Z,99333.38
2023-04-02T19:20:14.044Z,99335.91
2023-04-02T19:23:23.444Z,99337.09
2023-04-02T19:26:17.863Z,99336.13
2023-04-02T19:29:00.438Z,99330.13
2023-04-02T19:31:57.621Z,99325.94
2023-04-02T19:35:00.123Z,99334.16
2023-04-02T19:38:34.974Z,99338.47
2023-04-02T19:41:40.050Z,99342.91
2023-04-02T19:44:12.640Z,99346.69
2023-04-02T19:46:44.134Z,99340.50
2023-04-02T19:49:28.500Z,99346.16
2023-04-02T19:51:57.966Z,99352.50
2023-04-02T19:54:26.362Z,99352.09
2023-04-02T19:56:54.744Z,99361.56
2023-04-02T19:59:23.423Z,99357.78
2023-04-02T20:01:52.169Z,99358.75
2023-04-02T20:04:20.306Z,99358.75
2023-04-02T20:06:48.850Z,99358.22
2023-04-02T20:09:17.239Z,99355.25
2023-04-02T20:11:45.657Z,99364.41
2023-04-02T20:14:15.213Z,99364.97
2023-04-02T20:16:45.870Z,99371.16
2023-04-02T20:19:14.343Z,99374.41
2023-04-02T20:21:42.655Z,99381.25
2023-04-02T20:24:11.119Z,99373.38
2023-04-02T20:26:39.846Z,99378.63
2023-04-02T20:29:07.992Z,99392.09
2023-04-02T20:31:36.852Z,99384.84
2023-04-02T20:34:06.780Z,99396.41
2023-04-02T20:36:35.853Z,99401.03
2023-04-02T20:39:07.308Z,99392.63
2023-04-02T20:41:35.683Z,99387.75
2023-04-02T20:44:04.154Z,99404.47
2023-04-02T20:46:32.275Z,99397.22
2023-04-02T20:49:02.477Z,99403.53
2023-04-02T20:51:32.794Z,99404.47
2023-04-02T20:54:01.263Z,99411.41
2023-04-02T20:56:29.855Z,99410.34
2023-04-02T20:58:59.110Z,99408.56
2023-04-02T21:01:30.127Z,99419.31
2023-04-02T21:04:02.565Z,99427.56
2023-04-02T21:06:35.134Z,99422.94
2023-04-02T21:09:08.562Z,99431.97
2023-04-02T21:11:38.189Z,99426.28
2023-04-02T21:14:06.494Z,99427.47
2023-04-02T21:16:34.982Z,99420.59
2023-04-02T21:19:07.528Z,99423.13
2023-04-02T21:21:39.861Z,99429.63
2023-04-02T21:24:09.540Z,99427.84
2023-04-02T21:26:41.575Z,99430.59
2023-04-02T21:29:12.470Z,99431.00
2023-04-02T21:31:41.950Z,99436.59
2023-04-02T21:34:15.893Z,99438.16
2023-04-02T21:36:47.250Z,99432.22
2023-04-02T21:39:23.926Z,99446.19
2023-04-02T21:41:53.446Z,99445.66
2023-04-02T21:44:23.998Z,99460.59
2023-04-02T21:46:54.155Z,99449.91
2023-04-02T21:49:23.535Z,99451.22
2023-04-02T21:51:52.270Z,99450.25
2023-04-02T21:54:21.385Z,99446.38
2023-04-02T21:56:49.966Z,99449.81
2023-04-02T21:59:19.052Z,99449.47
2023-04-02T22:01:50.956Z,99455.16
2023-04-02T22:04:25.853Z,99454.72
2023-04-02T22:06:54.687Z,99453.88
2023-04-02T22:09:29.064Z,99461.84
2023-04-02T22:12:00.383Z,99458.56
2023-04-02T22:14:39.390Z,99462.72
2023-04-02T22:17:07.692Z,99470.19
2023-04-02T22:19:35.868Z,99464.59
2023-04-02T22:22:04.085Z,99468.53
2023-04-02T22:24:32.152Z,99473.16
2023-04-02T22:27:00.177Z,99480.19
2023-04-02T22:29:28.502Z,99477.00
2023-04-02T22:31:56.776Z,99478.97
2023-04-02T22:34:25.206Z,99479.91
2023-04-02T22:36:53.947Z,99483.19
2023-04-02T22:39:24.275Z,99492.00
2023-04-02T22:41:52.180Z,99484.88
2023-04-02T22:44:20.213Z,99485.81
2023-04-02T22:46:48.210Z,99487.78
2023-04-02T22:49:19.332Z,99494.97
2023-04-02T22:51:47.931Z,99495.63
2023-04-02T22:54:16.239Z,99500.81
2023-04-02T22:56:44.177Z,99493.69
2023-04-02T22:59:12.288Z,99500.22
2023-04-02T23:01:40.977Z,99504.25
2023-04-02T23:04:09.080Z,99495.28
2023-04-02T23:06:37.498Z,99491.53
2023-04-02T23:09:05.886Z,99491.28
2023-04-02T23:11:33.756Z,99496.19
2023-04-02T23:14:01.823Z,99498.63
2023-04-02T23:16:30.499Z,99504.16
2023-04-02T23:18:59.144Z,99500.25
2023-04-02T23:21:27.558Z,99502.97
2023-04-02T23:23:56.165Z,99511.94
2023-04-02T23:26:30.648Z,99512.03
2023-04-02T23:29:00.018Z,99507.53
2023-04-02T23:31:28.574Z,99517.34
2023-04-02T23:33:56.629Z,99512.97
2023-04-02T23:36:32.410Z,99512.78
2023-04-02T23:39:10.530Z,99501.34
2023-04-02T23:41:42.130Z,99507.72
2023-04-02T23:44:10.983Z,99503.16
2023-04-02T23:46:38.824Z,99503.16
2023-04-02T23:49:10.194Z,99510.41
2023-04-02T23:51:38.721Z,99513.97
2023-04-02T23:54:06.649Z,99514.06
2023-04-02T23:56:34.638Z,99520.97
2023-04-02T23:59:02.674Z,99525.31
